sensor_id;sensor_type;location;lat;lon;timestamp;temperature;humidity
10314;DHT22;5202;49.138;10.090;2023-03-21T00:00:53;8.80;99.90
10314;DHT22;5202;49.138;10.090;2023-03-21T00:03:22;8.80;99.90
10314;DHT22;5202;49.138;10.090;2023-03-21T00:05:52;8.80;99.90
10314;DHT22;5202;49.138;10.090;2023-03-21T00:08:22;8.70;99.90
10314;DHT22;5202;49.138;10.090;2023-03-21T00:10:55;8.80;99.90
10314;DHT22;5202;49.138;10.090;2023-03-21T00:13:26;8.80;99.90
10314;DHT22;5202;49.138;10.090;2023-03-21T00:16:03;8.70;99.90
10314;DHT22;5202;49.138;10.090;2023-03-21T00:18:48;8.70;99.90
10314;DHT22;5202;49.138;10.090;2023-03-21T00:21:19;8.70;99.90
10314;DHT22;5202;49.138;10.090;2023-03-21T00:24:14;8.70;99.90
10314;DHT22;5202;49.138;10.090;2023-03-21T00:26:42;8.70;99.90
10314;DHT22;5202;49.138;10.090;2023-03-21T00:29:12;8.70;99.90
10314;DHT22;5202;49.138;10.090;2023-03-21T00:31:40;8.70;99.90
10314;DHT22;5202;49.138;10.090;2023-03-21T00:34:08;8.70;99.90
10314;DHT22;5202;49.138;10.090;2023-03-21T00:36:42;8.70;99.90
10314;DHT22;5202;49.138;10.090;2023-03-21T00:39:10;8.70;99.90
10314;DHT22;5202;49.138;10.090;2023-03-21T00:41:40;8.80;99.90
10314;DHT22;5202;49.138;10.090;2023-03-21T00:44:09;8.80;99.90
10314;DHT22;5202;49.138;10.090;2023-03-21T00:46:42;8.80;99.90
10314;DHT22;5202;49.138;10.090;2023-03-21T00:49:30;8.70;99.90
10314;DHT22;5202;49.138;10.090;2023-03-21T00:52:02;8.70;99.90
10314;DHT22;5202;49.138;10.090;2023-03-21T00:54:42;8.70;99.90
10314;DHT22;5202;49.138;10.090;2023-03-21T00:57:11;8.60;99.90
10314;DHT22;5202;49.138;10.090;2023-03-21T00:59:40;8.60;99.90
10314;DHT22;5202;49.138;10.090;2023-03-21T01:02:08;8.50;99.90
10314;DHT22;5202;49.138;10.090;2023-03-21T01:04:40;8.50;99.90
10314;DHT22;5202;49.138;10.090;2023-03-21T01:07:10;8.40;99.90
10314;DHT22;5202;49.138;10.090;2023-03-21T01:09:38;8.30;99.90
10314;DHT22;5202;49.138;10.090;2023-03-21T01:12:06;8.30;99.90
10314;DHT22;5202;49.138;10.090;2023-03-21T01:14:36;8.30;99.90
10314;DHT22;5202;49.138;10.090;2023-03-21T01:17:07;8.20;99.90
10314;DHT22;5202;49.138;10.090;2023-03-21T01:19:35;8.20;99.90
10314;DHT22;5202;49.138;10.090;2023-03-21T01:22:18;8.20;99.90
10314;DHT22;5202;49.138;10.090;2023-03-21T01:24:46;8.20;99.90
10314;DHT22;5202;49.138;10.090;2023-03-21T01:27:24;8.20;99.90
10314;DHT22;5202;49.138;10.090;2023-03-21T01:29:53;8.30;99.90
10314;DHT22;5202;49.138;10.090;2023-03-21T01:32:22;8.30;99.90
10314;DHT22;5202;49.138;10.090;2023-03-21T01:34:51;8.30;99.90
10314;DHT22;5202;49.138;10.090;2023-03-21T01:37:21;8.30;99.90
10314;DHT22;5202;49.138;10.090;2023-03-21T01:39:52;8.30;99.90
10314;DHT22;5202;49.138;10.090;2023-03-21T01:42:20;8.30;99.90
10314;DHT22;5202;49.138;10.090;2023-03-21T01:44:55;8.20;99.90
10314;DHT22;5202;49.138;10.090;2023-03-21T01:47:34;8.20;99.90
10314;DHT22;5202;49.138;10.090;2023-03-21T01:50:10;8.20;99.90
10314;DHT22;5202;49.138;10.090;2023-03-21T01:52:48;8.30;99.90
10314;DHT22;5202;49.138;10.090;2023-03-21T01:55:25;8.30;99.90
10314;DHT22;5202;49.138;10.090;2023-03-21T01:58:20;8.30;99.90
10314;DHT22;5202;49.138;10.090;2023-03-21T02:01:01;8.30;99.90
10314;DHT22;5202;49.138;10.090;2023-03-21T02:03:46;8.30;99.90
10314;DHT22;5202;49.138;10.090;2023-03-21T02:06:41;8.30;99.90
10314;DHT22;5202;49.138;10.090;2023-03-21T02:09:27;8.30;99.90
10314;DHT22;5202;49.138;10.090;2023-03-21T02:12:00;8.30;99.90
10314;DHT22;5202;49.138;10.090;2023-03-21T02:14:32;8.30;99.90
10314;DHT22;5202;49.138;10.090;2023-03-21T02:17:17;8.20;99.90
10314;DHT22;5202;49.138;10.090;2023-03-21T02:20:28;8.20;99.90
10314;DHT22;5202;49.138;10.090;2023-03-21T02:23:44;8.20;99.90
10314;DHT22;5202;49.138;10.090;2023-03-21T02:26:49;8.10;99.90
10314;DHT22;5202;49.138;10.090;2023-03-21T02:30:09;8.10;99.90
10314;DHT22;5202;49.138;10.090;2023-03-21T02:33:37;8.00;99.90
10314;DHT22;5202;49.138;10.090;2023-03-21T02:36:23;8.00;99.90
10314;DHT22;5202;49.138;10.090;2023-03-21T02:39:00;8.00;99.90
10314;DHT22;5202;49.138;10.090;2023-03-21T02:41:40;8.00;99.90
10314;DHT22;5202;49.138;10.090;2023-03-21T02:44:19;7.90;99.90
10314;DHT22;5202;49.138;10.090;2023-03-21T02:46:52;7.90;99.90
10314;DHT22;5202;49.138;10.090;2023-03-21T02:49:36;7.90;99.90
10314;DHT22;5202;49.138;10.090;2023-03-21T02:52:15;7.90;99.90
10314;DHT22;5202;49.138;10.090;2023-03-21T02:55:09;7.80;99.90
10314;DHT22;5202;49.138;10.090;2023-03-21T02:57:49;7.80;99.90
10314;DHT22;5202;49.138;10.090;2023-03-21T03:00:21;7.80;99.90
10314;DHT22;5202;49.138;10.090;2023-03-21T03:02:52;7.70;99.90
10314;DHT22;5202;49.138;10.090;2023-03-21T03:05:39;7.70;99.90
10314;DHT22;5202;49.138;10.090;2023-03-21T03:08:19;7.70;99.90
10314;DHT22;5202;49.138;10.090;2023-03-21T03:11:16;7.70;99.90
10314;DHT22;5202;49.138;10.090;2023-03-21T03:14:21;7.80;99.90
10314;DHT22;5202;49.138;10.090;2023-03-21T03:17:37;7.80;99.90
10314;DHT22;5202;49.138;10.090;2023-03-21T03:20:24;7.80;99.90
10314;DHT22;5202;49.138;10.090;2023-03-21T03:23:08;7.80;99.90
10314;DHT22;5202;49.138;10.090;2023-03-21T03:25:44;7.80;99.90
10314;DHT22;5202;49.138;10.090;2023-03-21T03:28:21;7.80;99.90
10314;DHT22;5202;49.138;10.090;2023-03-21T03:30:53;7.80;99.90
10314;DHT22;5202;49.138;10.090;2023-03-21T03:33:52;7.70;99.90
10314;DHT22;5202;49.138;10.090;2023-03-21T03:36:26;7.70;99.90
10314;DHT22;5202;49.138;10.090;2023-03-21T03:39:14;7.70;99.90
10314;DHT22;5202;49.138;10.090;2023-03-21T03:41:58;7.70;99.90
10314;DHT22;5202;49.138;10.090;2023-03-21T03:44:56;7.60;99.90
10314;DHT22;5202;49.138;10.090;2023-03-21T03:47:31;7.60;99.90
10314;DHT22;5202;49.138;10.090;2023-03-21T03:50:13;7.60;99.90
10314;DHT22;5202;49.138;10.090;2023-03-21T03:52:54;7.60;99.90
10314;DHT22;5202;49.138;10.090;2023-03-21T03:55:30;7.60;99.90
10314;DHT22;5202;49.138;10.090;2023-03-21T03:58:08;7.60;99.90
10314;DHT22;5202;49.138;10.090;2023-03-21T04:00:51;7.60;99.90
10314;DHT22;5202;49.138;10.090;2023-03-21T04:03:21;7.60;99.90
10314;DHT22;5202;49.138;10.090;2023-03-21T04:05:50;7.60;99.90
10314;DHT22;5202;49.138;10.090;2023-03-21T04:08:19;7.60;99.90
10314;DHT22;5202;49.138;10.090;2023-03-21T04:10:52;7.60;99.90
10314;DHT22;5202;49.138;10.090;2023-03-21T04:13:22;7.60;99.90
10314;DHT22;5202;49.138;10.090;2023-03-21T04:16:08;7.60;99.90
10314;DHT22;5202;49.138;10.090;2023-03-21T04:18:40;7.50;99.90
10314;DHT22;5202;49.138;10.090;2023-03-21T04:21:09;7.50;99.90
10314;DHT22;5202;49.138;10.090;2023-03-21T04:23:40;7.50;99.90
10314;DHT22;5202;49.138;10.090;2023-03-21T04:26:09;7.50;99.90
10314;DHT22;5202;49.138;10.090;2023-03-21T04:28:49;7.40;99.90
10314;DHT22;5202;49.138;10.090;2023-03-21T04:31:51;7.40;99.90
10314;DHT22;5202;49.138;10.090;2023-03-21T04:34:19;7.40;99.90
10314;DHT22;5202;49.138;10.090;2023-03-21T04:36:51;7.20;99.90
10314;DHT22;5202;49.138;10.090;2023-03-21T04:39:21;7.20;99.90
10314;DHT22;5202;49.138;10.090;2023-03-21T04:41:50;7.20;99.90
10314;DHT22;5202;49.138;10.090;2023-03-21T04:44:18;7.20;99.90
10314;DHT22;5202;49.138;10.090;2023-03-21T04:46:47;7.20;99.90
10314;DHT22;5202;49.138;10.090;2023-03-21T04:49:17;7.20;99.90
10314;DHT22;5202;49.138;10.090;2023-03-21T04:51:45;7.20;99.90
10314;DHT22;5202;49.138;10.090;2023-03-21T04:54:17;7.10;99.90
10314;DHT22;5202;49.138;10.090;2023-03-21T04:56:46;7.10;99.90
10314;DHT22;5202;49.138;10.090;2023-03-21T04:59:15;7.10;99.90
10314;DHT22;5202;49.138;10.090;2023-03-21T05:01:43;7.20;99.90
10314;DHT22;5202;49.138;10.090;2023-03-21T05:04:13;7.10;99.90
10314;DHT22;5202;49.138;10.090;2023-03-21T05:06:43;7.10;99.90
10314;DHT22;5202;49.138;10.090;2023-03-21T05:09:15;7.10;99.90
10314;DHT22;5202;49.138;10.090;2023-03-21T05:11:43;7.20;99.90
10314;DHT22;5202;49.138;10.090;2023-03-21T05:14:16;7.10;99.90
10314;DHT22;5202;49.138;10.090;2023-03-21T05:16:46;7.10;99.90
10314;DHT22;5202;49.138;10.090;2023-03-21T05:19:22;7.10;99.90
10314;DHT22;5202;49.138;10.090;2023-03-21T05:21:53;7.10;99.90
10314;DHT22;5202;49.138;10.090;2023-03-21T05:24:26;7.10;99.90
10314;DHT22;5202;49.138;10.090;2023-03-21T05:26:54;7.10;99.90
10314;DHT22;5202;49.138;10.090;2023-03-21T05:29:32;7.10;99.90
10314;DHT22;5202;49.138;10.090;2023-03-21T05:32:04;7.10;99.90
10314;DHT22;5202;49.138;10.090;2023-03-21T05:34:32;7.10;99.90
10314;DHT22;5202;49.138;10.090;2023-03-21T05:37:03;7.00;99.90
10314;DHT22;5202;49.138;10.090;2023-03-21T05:39:44;7.00;99.90
10314;DHT22;5202;49.138;10.090;2023-03-21T05:42:19;6.90;99.90
10314;DHT22;5202;49.138;10.090;2023-03-21T05:44:48;6.90;99.90
10314;DHT22;5202;49.138;10.090;2023-03-21T05:47:21;7.00;99.90
10314;DHT22;5202;49.138;10.090;2023-03-21T05:49:51;6.90;99.90
10314;DHT22;5202;49.138;10.090;2023-03-21T05:52:22;6.90;99.90
10314;DHT22;5202;49.138;10.090;2023-03-21T05:54:50;6.90;99.90
10314;DHT22;5202;49.138;10.090;2023-03-21T05:57:22;6.90;99.90
10314;DHT22;5202;49.138;10.090;2023-03-21T06:00:03;7.00;99.90
10314;DHT22;5202;49.138;10.090;2023-03-21T06:02:41;7.00;99.90
10314;DHT22;5202;49.138;10.090;2023-03-21T06:05:28;7.00;99.90
10314;DHT22;5202;49.138;10.090;2023-03-21T06:07:58;7.10;99.90
10314;DHT22;5202;49.138;10.090;2023-03-21T06:10:27;7.10;99.90
10314;DHT22;5202;49.138;10.090;2023-03-21T06:12:56;7.10;99.90
10314;DHT22;5202;49.138;10.090;2023-03-21T06:15:27;7.10;99.90
10314;DHT22;5202;49.138;10.090;2023-03-21T06:18:03;7.20;99.90
10314;DHT22;5202;49.138;10.090;2023-03-21T06:20:33;7.20;99.90
10314;DHT22;5202;49.138;10.090;2023-03-21T06:23:08;7.30;99.90
10314;DHT22;5202;49.138;10.090;2023-03-21T06:25:37;7.30;99.90
10314;DHT22;5202;49.138;10.090;2023-03-21T06:28:06;7.30;99.90
10314;DHT22;5202;49.138;10.090;2023-03-21T06:30:38;7.30;99.90
10314;DHT22;5202;49.138;10.090;2023-03-21T06:33:13;7.30;99.90
10314;DHT22;5202;49.138;10.090;2023-03-21T06:35:42;7.40;99.90
10314;DHT22;5202;49.138;10.090;2023-03-21T06:38:12;7.50;99.90
10314;DHT22;5202;49.138;10.090;2023-03-21T06:40:41;7.60;99.90
10314;DHT22;5202;49.138;10.090;2023-03-21T06:43:09;7.70;99.90
10314;DHT22;5202;49.138;10.090;2023-03-21T06:45:38;7.70;99.90
10314;DHT22;5202;49.138;10.090;2023-03-21T06:48:09;7.80;99.90
10314;DHT22;5202;49.138;10.090;2023-03-21T06:50:49;7.90;99.90
10314;DHT22;5202;49.138;10.090;2023-03-21T06:53:22;8.00;99.90
10314;DHT22;5202;49.138;10.090;2023-03-21T06:56:13;8.00;99.90
10314;DHT22;5202;49.138;10.090;2023-03-21T06:58:43;8.10;99.90
10314;DHT22;5202;49.138;10.090;2023-03-21T07:01:22;8.20;99.90
10314;DHT22;5202;49.138;10.090;2023-03-21T07:04:13;8.20;99.90
10314;DHT22;5202;49.138;10.090;2023-03-21T07:06:45;8.30;99.90
10314;DHT22;5202;49.138;10.090;2023-03-21T07:09:15;8.30;99.90
10314;DHT22;5202;49.138;10.090;2023-03-21T07:11:44;8.30;99.90
10314;DHT22;5202;49.138;10.090;2023-03-21T07:14:13;8.40;99.90
10314;DHT22;5202;49.138;10.090;2023-03-21T07:16:41;8.40;99.90
10314;DHT22;5202;49.138;10.090;2023-03-21T07:19:10;8.50;99.90
10314;DHT22;5202;49.138;10.090;2023-03-21T07:21:38;8.60;99.90
10314;DHT22;5202;49.138;10.090;2023-03-21T07:24:07;8.60;99.90
10314;DHT22;5202;49.138;10.090;2023-03-21T07:26:37;8.70;99.90
10314;DHT22;5202;49.138;10.090;2023-03-21T07:29:06;8.70;99.90
10314;DHT22;5202;49.138;10.090;2023-03-21T07:31:34;8.80;99.90
10314;DHT22;5202;49.138;10.090;2023-03-21T07:34:03;8.90;99.90
10314;DHT22;5202;49.138;10.090;2023-03-21T07:36:31;9.00;99.90
10314;DHT22;5202;49.138;10.090;2023-03-21T07:39:00;9.10;99.90
10314;DHT22;5202;49.138;10.090;2023-03-21T07:41:29;9.10;99.90
10314;DHT22;5202;49.138;10.090;2023-03-21T07:44:11;9.10;99.90
10314;DHT22;5202;49.138;10.090;2023-03-21T07:46:39;9.10;99.90
10314;DHT22;5202;49.138;10.090;2023-03-21T07:49:07;9.20;99.90
10314;DHT22;5202;49.138;10.090;2023-03-21T07:51:36;9.20;99.90
10314;DHT22;5202;49.138;10.090;2023-03-21T07:54:05;9.30;99.90
10314;DHT22;5202;49.138;10.090;2023-03-21T07:56:33;9.30;99.90
10314;DHT22;5202;49.138;10.090;2023-03-21T07:59:02;9.30;99.90
10314;DHT22;5202;49.138;10.090;2023-03-21T08:01:32;9.40;99.90
10314;DHT22;5202;49.138;10.090;2023-03-21T08:04:00;9.40;99.90
10314;DHT22;5202;49.138;10.090;2023-03-21T08:06:29;9.60;99.90
10314;DHT22;5202;49.138;10.090;2023-03-21T08:08:58;9.80;99.90
10314;DHT22;5202;49.138;10.090;2023-03-21T08:11:27;9.90;99.90
10314;DHT22;5202;49.138;10.090;2023-03-21T08:13:57;10.00;99.90
10314;DHT22;5202;49.138;10.090;2023-03-21T08:16:25;10.00;99.90
10314;DHT22;5202;49.138;10.090;2023-03-21T08:18:55;10.00;99.90
10314;DHT22;5202;49.138;10.090;2023-03-21T08:21:23;10.00;99.90
10314;DHT22;5202;49.138;10.090;2023-03-21T08:23:52;10.00;99.90
10314;DHT22;5202;49.138;10.090;2023-03-21T08:26:20;10.10;99.90
10314;DHT22;5202;49.138;10.090;2023-03-21T08:28:51;10.10;99.90
10314;DHT22;5202;49.138;10.090;2023-03-21T08:31:19;10.10;99.90
10314;DHT22;5202;49.138;10.090;2023-03-21T08:33:48;10.10;99.90
10314;DHT22;5202;49.138;10.090;2023-03-21T08:36:22;10.20;99.90
10314;DHT22;5202;49.138;10.090;2023-03-21T08:38:50;10.30;99.90
10314;DHT22;5202;49.138;10.090;2023-03-21T08:41:22;10.40;99.90
10314;DHT22;5202;49.138;10.090;2023-03-21T08:43:51;10.50;99.90
10314;DHT22;5202;49.138;10.090;2023-03-21T08:46:20;10.50;99.90
10314;DHT22;5202;49.138;10.090;2023-03-21T08:48:48;10.60;99.90
10314;DHT22;5202;49.138;10.090;2023-03-21T08:51:17;10.70;99.90
10314;DHT22;5202;49.138;10.090;2023-03-21T08:53:47;10.80;99.90
10314;DHT22;5202;49.138;10.090;2023-03-21T08:56:16;10.90;99.90
10314;DHT22;5202;49.138;10.090;2023-03-21T08:58:45;11.10;99.90
10314;DHT22;5202;49.138;10.090;2023-03-21T09:01:17;11.10;99.90
10314;DHT22;5202;49.138;10.090;2023-03-21T09:03:47;11.20;99.90
10314;DHT22;5202;49.138;10.090;2023-03-21T09:06:19;11.20;99.30
10314;DHT22;5202;49.138;10.090;2023-03-21T09:08:48;11.10;98.60
10314;DHT22;5202;49.138;10.090;2023-03-21T09:11:18;11.20;99.00
10314;DHT22;5202;49.138;10.090;2023-03-21T09:13:46;11.10;98.20
10314;DHT22;5202;49.138;10.090;2023-03-21T09:16:14;11.20;97.60
10314;DHT22;5202;49.138;10.090;2023-03-21T09:18:43;11.20;97.20
10314;DHT22;5202;49.138;10.090;2023-03-21T09:21:13;11.20;96.50
10314;DHT22;5202;49.138;10.090;2023-03-21T09:23:42;11.30;96.40
10314;DHT22;5202;49.138;10.090;2023-03-21T09:26:13;11.40;95.30
10314;DHT22;5202;49.138;10.090;2023-03-21T09:28:42;11.40;95.40
10314;DHT22;5202;49.138;10.090;2023-03-21T09:31:10;11.40;95.70
10314;DHT22;5202;49.138;10.090;2023-03-21T09:33:40;11.40;93.60
10314;DHT22;5202;49.138;10.090;2023-03-21T09:36:10;11.40;93.90
10314;DHT22;5202;49.138;10.090;2023-03-21T09:38:40;11.50;94.30
10314;DHT22;5202;49.138;10.090;2023-03-21T09:41:23;11.60;94.10
10314;DHT22;5202;49.138;10.090;2023-03-21T09:44:08;11.70;92.90
10314;DHT22;5202;49.138;10.090;2023-03-21T09:46:46;11.80;92.30
10314;DHT22;5202;49.138;10.090;2023-03-21T09:49:21;11.90;92.00
10314;DHT22;5202;49.138;10.090;2023-03-21T09:51:56;12.00;91.90
10314;DHT22;5202;49.138;10.090;2023-03-21T09:54:27;12.20;93.20
10314;DHT22;5202;49.138;10.090;2023-03-21T09:57:03;12.30;93.20
10314;DHT22;5202;49.138;10.090;2023-03-21T09:59:40;12.40;92.20
10314;DHT22;5202;49.138;10.090;2023-03-21T10:02:20;12.50;93.10
10314;DHT22;5202;49.138;10.090;2023-03-21T10:05:08;12.60;92.10
10314;DHT22;5202;49.138;10.090;2023-03-21T10:07:41;12.40;91.10
10314;DHT22;5202;49.138;10.090;2023-03-21T10:10:19;12.50;90.80
10314;DHT22;5202;49.138;10.090;2023-03-21T10:12:52;12.60;91.70
10314;DHT22;5202;49.138;10.090;2023-03-21T10:15:23;12.60;91.80
10314;DHT22;5202;49.138;10.090;2023-03-21T10:18:04;12.70;93.20
10314;DHT22;5202;49.138;10.090;2023-03-21T10:20:35;12.80;92.40
10314;DHT22;5202;49.138;10.090;2023-03-21T10:23:06;12.80;91.70
10314;DHT22;5202;49.138;10.090;2023-03-21T10:25:40;12.70;91.60
10314;DHT22;5202;49.138;10.090;2023-03-21T10:28:15;12.90;91.70
10314;DHT22;5202;49.138;10.090;2023-03-21T10:30:45;13.10;91.00
10314;DHT22;5202;49.138;10.090;2023-03-21T10:33:19;13.20;90.90
10314;DHT22;5202;49.138;10.090;2023-03-21T10:35:51;13.30;90.60
10314;DHT22;5202;49.138;10.090;2023-03-21T10:38:24;13.20;88.90
10314;DHT22;5202;49.138;10.090;2023-03-21T10:40:53;13.10;88.90
10314;DHT22;5202;49.138;10.090;2023-03-21T10:43:34;13.20;89.50
10314;DHT22;5202;49.138;10.090;2023-03-21T10:46:07;13.10;88.70
10314;DHT22;5202;49.138;10.090;2023-03-21T10:48:38;13.20;89.30
10314;DHT22;5202;49.138;10.090;2023-03-21T10:51:16;13.60;91.10
10314;DHT22;5202;49.138;10.090;2023-03-21T10:53:50;13.80;87.40
10314;DHT22;5202;49.138;10.090;2023-03-21T10:56:23;13.80;84.80
10314;DHT22;5202;49.138;10.090;2023-03-21T10:58:55;13.90;84.50
10314;DHT22;5202;49.138;10.090;2023-03-21T11:01:28;14.20;83.20
10314;DHT22;5202;49.138;10.090;2023-03-21T11:04:28;14.10;80.90
10314;DHT22;5202;49.138;10.090;2023-03-21T11:07:00;14.20;81.40
10314;DHT22;5202;49.138;10.090;2023-03-21T11:09:44;14.20;81.70
10314;DHT22;5202;49.138;10.090;2023-03-21T11:12:21;14.20;81.30
10314;DHT22;5202;49.138;10.090;2023-03-21T11:15:18;14.20;80.70
10314;DHT22;5202;49.138;10.090;2023-03-21T11:17:53;14.20;81.00
10314;DHT22;5202;49.138;10.090;2023-03-21T11:20:22;14.30;81.50
10314;DHT22;5202;49.138;10.090;2023-03-21T11:22:53;14.30;83.10
10314;DHT22;5202;49.138;10.090;2023-03-21T11:25:30;14.30;83.00
10314;DHT22;5202;49.138;10.090;2023-03-21T11:28:05;14.20;82.50
10314;DHT22;5202;49.138;10.090;2023-03-21T11:30:36;14.20;83.00
10314;DHT22;5202;49.138;10.090;2023-03-21T11:33:05;14.30;83.20
10314;DHT22;5202;49.138;10.090;2023-03-21T11:35:35;14.50;84.50
10314;DHT22;5202;49.138;10.090;2023-03-21T11:38:09;14.80;84.90
10314;DHT22;5202;49.138;10.090;2023-03-21T11:40:53;15.00;81.70
10314;DHT22;5202;49.138;10.090;2023-03-21T11:43:27;15.10;82.50
10314;DHT22;5202;49.138;10.090;2023-03-21T11:46:05;15.10;81.90
10314;DHT22;5202;49.138;10.090;2023-03-21T11:48:38;14.90;82.40
10314;DHT22;5202;49.138;10.090;2023-03-21T11:51:16;15.00;83.30
10314;DHT22;5202;49.138;10.090;2023-03-21T11:53:54;15.20;82.80
10314;DHT22;5202;49.138;10.090;2023-03-21T11:56:28;15.10;81.80
10314;DHT22;5202;49.138;10.090;2023-03-21T11:59:07;15.10;82.30
10314;DHT22;5202;49.138;10.090;2023-03-21T12:02:22;15.10;83.80
10314;DHT22;5202;49.138;10.090;2023-03-21T12:05:02;15.20;83.60
10314;DHT22;5202;49.138;10.090;2023-03-21T12:07:43;15.40;82.40
10314;DHT22;5202;49.138;10.090;2023-03-21T12:10:28;15.40;82.00
10314;DHT22;5202;49.138;10.090;2023-03-21T12:13:08;15.40;82.00
10314;DHT22;5202;49.138;10.090;2023-03-21T12:15:49;15.50;82.60
10314;DHT22;5202;49.138;10.090;2023-03-21T12:21:46;15.40;82.20
10314;DHT22;5202;49.138;10.090;2023-03-21T12:24:22;15.40;83.10
10314;DHT22;5202;49.138;10.090;2023-03-21T12:26:57;15.50;83.70
10314;DHT22;5202;49.138;10.090;2023-03-21T12:29:39;15.60;82.90
10314;DHT22;5202;49.138;10.090;2023-03-21T12:32:36;15.50;81.60
10314;DHT22;5202;49.138;10.090;2023-03-21T12:35:24;15.40;83.60
10314;DHT22;5202;49.138;10.090;2023-03-21T12:38:08;15.50;83.70
10314;DHT22;5202;49.138;10.090;2023-03-21T12:41:01;15.40;82.80
10314;DHT22;5202;49.138;10.090;2023-03-21T12:43:48;15.40;82.50
10314;DHT22;5202;49.138;10.090;2023-03-21T12:46:24;15.30;83.50
10314;DHT22;5202;49.138;10.090;2023-03-21T12:48:58;15.30;83.80
10314;DHT22;5202;49.138;10.090;2023-03-21T12:54:06;15.20;83.40
10314;DHT22;5202;49.138;10.090;2023-03-21T12:56:47;15.20;84.20
10314;DHT22;5202;49.138;10.090;2023-03-21T12:59:22;15.30;83.30
10314;DHT22;5202;49.138;10.090;2023-03-21T13:01:57;15.20;83.40
10314;DHT22;5202;49.138;10.090;2023-03-21T13:04:38;15.20;82.80
10314;DHT22;5202;49.138;10.090;2023-03-21T13:07:16;15.20;83.30
10314;DHT22;5202;49.138;10.090;2023-03-21T13:09:45;15.20;84.60
10314;DHT22;5202;49.138;10.090;2023-03-21T13:12:25;15.20;82.80
10314;DHT22;5202;49.138;10.090;2023-03-21T13:15:12;15.20;81.60
10314;DHT22;5202;49.138;10.090;2023-03-21T13:17:56;15.20;83.20
10314;DHT22;5202;49.138;10.090;2023-03-21T13:20:33;15.00;83.10
10314;DHT22;5202;49.138;10.090;2023-03-21T13:23:33;14.90;83.20
10314;DHT22;5202;49.138;10.090;2023-03-21T13:26:07;14.80;82.40
10314;DHT22;5202;49.138;10.090;2023-03-21T13:28:39;14.80;82.90
10314;DHT22;5202;49.138;10.090;2023-03-21T13:31:18;14.80;82.70
10314;DHT22;5202;49.138;10.090;2023-03-21T13:33:48;14.90;83.80
10314;DHT22;5202;49.138;10.090;2023-03-21T13:36:23;14.90;83.00
10314;DHT22;5202;49.138;10.090;2023-03-21T13:38:59;14.90;82.40
10314;DHT22;5202;49.138;10.090;2023-03-21T13:41:33;14.80;83.90
10314;DHT22;5202;49.138;10.090;2023-03-21T13:44:08;14.90;83.60
10314;DHT22;5202;49.138;10.090;2023-03-21T13:46:52;14.90;82.90
10314;DHT22;5202;49.138;10.090;2023-03-21T13:49:33;15.00;82.60
10314;DHT22;5202;49.138;10.090;2023-03-21T13:52:24;15.00;82.40
10314;DHT22;5202;49.138;10.090;2023-03-21T13:54:56;14.90;83.00
10314;DHT22;5202;49.138;10.090;2023-03-21T13:57:37;14.90;82.80
10314;DHT22;5202;49.138;10.090;2023-03-21T14:00:16;14.90;81.80
10314;DHT22;5202;49.138;10.090;2023-03-21T14:02:53;14.80;82.00
10314;DHT22;5202;49.138;10.090;2023-03-21T14:05:25;14.70;82.10
10314;DHT22;5202;49.138;10.090;2023-03-21T14:07:57;14.70;81.70
10314;DHT22;5202;49.138;10.090;2023-03-21T14:10:44;14.70;83.10
10314;DHT22;5202;49.138;10.090;2023-03-21T14:13:17;14.70;81.80
10314;DHT22;5202;49.138;10.090;2023-03-21T14:15:51;14.70;82.60
10314;DHT22;5202;49.138;10.090;2023-03-21T14:18:25;14.80;82.20
10314;DHT22;5202;49.138;10.090;2023-03-21T14:21:16;14.70;81.80
10314;DHT22;5202;49.138;10.090;2023-03-21T14:23:58;14.70;82.30
10314;DHT22;5202;49.138;10.090;2023-03-21T14:26:31;14.70;82.70
10314;DHT22;5202;49.138;10.090;2023-03-21T14:29:02;14.70;83.60
10314;DHT22;5202;49.138;10.090;2023-03-21T14:31:41;14.70;83.20
10314;DHT22;5202;49.138;10.090;2023-03-21T14:34:13;14.60;83.40
10314;DHT22;5202;49.138;10.090;2023-03-21T14:36:43;14.50;82.50
10314;DHT22;5202;49.138;10.090;2023-03-21T14:39:26;14.50;84.00
10314;DHT22;5202;49.138;10.090;2023-03-21T14:42:02;14.50;84.50
10314;DHT22;5202;49.138;10.090;2023-03-21T14:44:33;14.40;85.80
10314;DHT22;5202;49.138;10.090;2023-03-21T14:47:21;14.40;87.90
10314;DHT22;5202;49.138;10.090;2023-03-21T14:49:51;14.30;88.50
10314;DHT22;5202;49.138;10.090;2023-03-21T14:52:22;14.20;89.00
10314;DHT22;5202;49.138;10.090;2023-03-21T14:54:53;14.20;90.20
10314;DHT22;5202;49.138;10.090;2023-03-21T14:57:25;14.10;91.00
10314;DHT22;5202;49.138;10.090;2023-03-21T14:59:58;14.10;91.10
10314;DHT22;5202;49.138;10.090;2023-03-21T15:02:31;14.10;92.20
10314;DHT22;5202;49.138;10.090;2023-03-21T15:05:08;14.00;91.70
10314;DHT22;5202;49.138;10.090;2023-03-21T15:07:37;14.00;91.00
10314;DHT22;5202;49.138;10.090;2023-03-21T15:10:13;13.90;92.10
10314;DHT22;5202;49.138;10.090;2023-03-21T15:12:52;14.00;92.30
10314;DHT22;5202;49.138;10.090;2023-03-21T15:15:24;14.00;92.60
10314;DHT22;5202;49.138;10.090;2023-03-21T15:17:55;13.90;91.80
10314;DHT22;5202;49.138;10.090;2023-03-21T15:20:28;13.90;91.40
10314;DHT22;5202;49.138;10.090;2023-03-21T15:23:01;13.90;92.50
10314;DHT22;5202;49.138;10.090;2023-03-21T15:25:33;13.90;91.20
10314;DHT22;5202;49.138;10.090;2023-03-21T15:28:05;13.80;91.20
10314;DHT22;5202;49.138;10.090;2023-03-21T15:30:33;13.70;91.10
10314;DHT22;5202;49.138;10.090;2023-03-21T15:33:07;13.60;90.80
10314;DHT22;5202;49.138;10.090;2023-03-21T15:35:37;13.60;91.00
10314;DHT22;5202;49.138;10.090;2023-03-21T15:38:20;13.60;91.20
10314;DHT22;5202;49.138;10.090;2023-03-21T15:40:50;13.50;91.40
10314;DHT22;5202;49.138;10.090;2023-03-21T15:43:20;13.50;92.10
10314;DHT22;5202;49.138;10.090;2023-03-21T15:45:50;13.50;92.70
10314;DHT22;5202;49.138;10.090;2023-03-21T15:48:25;13.40;94.40
10314;DHT22;5202;49.138;10.090;2023-03-21T15:50:58;13.40;94.50
10314;DHT22;5202;49.138;10.090;2023-03-21T15:53:30;13.40;94.60
10314;DHT22;5202;49.138;10.090;2023-03-21T15:56:01;13.40;96.10
10314;DHT22;5202;49.138;10.090;2023-03-21T15:58:34;13.30;95.00
10314;DHT22;5202;49.138;10.090;2023-03-21T16:01:07;13.30;95.60
10314;DHT22;5202;49.138;10.090;2023-03-21T16:03:42;13.30;96.10
10314;DHT22;5202;49.138;10.090;2023-03-21T16:06:17;13.30;96.20
10314;DHT22;5202;49.138;10.090;2023-03-21T16:08:48;13.20;95.40
10314;DHT22;5202;49.138;10.090;2023-03-21T16:11:22;13.30;95.80
10314;DHT22;5202;49.138;10.090;2023-03-21T16:13:54;13.30;95.90
10314;DHT22;5202;49.138;10.090;2023-03-21T16:16:24;13.30;96.00
10314;DHT22;5202;49.138;10.090;2023-03-21T16:18:54;13.30;96.00
10314;DHT22;5202;49.138;10.090;2023-03-21T16:21:25;13.20;96.70
10314;DHT22;5202;49.138;10.090;2023-03-21T16:23:55;13.20;96.70
10314;DHT22;5202;49.138;10.090;2023-03-21T16:26:26;13.20;96.00
10314;DHT22;5202;49.138;10.090;2023-03-21T16:28:58;13.20;96.20
10314;DHT22;5202;49.138;10.090;2023-03-21T16:31:29;13.10;96.10
10314;DHT22;5202;49.138;10.090;2023-03-21T16:33:58;13.10;95.90